createdAt,value
2022-11-29T00:07:40.732Z,-0.88
2022-11-29T00:17:47.090Z,-0.97
2022-11-29T00:27:53.349Z,-0.99
2022-11-29T00:38:00.151Z,-1.10
2022-11-29T00:48:06.444Z,-1.03
2022-11-29T00:58:12.717Z,-1.30
2022-11-29T01:08:19.401Z,-1.17
2022-11-29T01:18:28.787Z,-1.20
2022-11-29T01:28:35.917Z,-1.40
2022-11-29T01:38:43.602Z,-1.18
2022-11-29T01:48:50.277Z,-1.08
2022-11-29T01:58:56.562Z,-1.24
2022-11-29T02:09:02.968Z,-1.41
2022-11-29T02:19:28.388Z,-1.17
2022-11-29T02:29:52.736Z,-1.14
2022-11-29T02:40:26.320Z,-1.26
2022-11-29T02:51:03.000Z,-1.13
2022-11-29T03:01:22.291Z,-1.15
2022-11-29T03:11:45.572Z,-1.40
2022-11-29T03:22:16.730Z,-1.57
2022-11-29T03:32:30.151Z,-1.44
2022-11-29T03:42:45.868Z,-1.76
2022-11-29T03:52:58.100Z,-1.56
2022-11-29T04:03:44.874Z,-1.53
2022-11-29T04:14:18.242Z,-1.63
2022-11-29T04:25:00.810Z,-1.83
2022-11-29T04:35:24.944Z,-1.75
2022-11-29T04:46:13.115Z,-1.58
2022-11-29T04:56:31.535Z,-1.71
2022-11-29T05:06:50.769Z,-1.77
2022-11-29T05:17:24.805Z,-1.91
2022-11-29T05:27:40.796Z,-1.89
2022-11-29T05:37:51.399Z,-2.02
2022-11-29T05:48:02.650Z,-2.04
2022-11-29T05:58:43.294Z,-2.03
2022-11-29T06:08:58.105Z,-2.18
2022-11-29T06:19:06.772Z,-2.30
2022-11-29T06:29:27.041Z,-2.39
2022-11-29T06:39:33.505Z,-2.34
2022-11-29T06:49:50.269Z,-2.38
2022-11-29T07:00:19.888Z,-2.56
2022-11-29T07:10:32.945Z,-2.52
2022-11-29T07:20:52.993Z,-2.59
2022-11-29T07:31:18.733Z,-2.78
2022-11-29T07:41:41.881Z,-2.59
2022-11-29T07:51:48.226Z,-2.66
2022-11-29T08:01:54.563Z,-2.53
2022-11-29T08:12:00.894Z,-2.61
2022-11-29T08:22:07.171Z,-2.51
2022-11-29T08:32:13.469Z,-2.19
2022-11-29T08:42:19.701Z,-2.13
2022-11-29T08:52:44.565Z,-2.02
2022-11-29T09:02:50.820Z,-1.74
2022-11-29T09:12:57.086Z,-1.42
2022-11-29T09:23:03.984Z,-1.20
2022-11-29T09:33:10.236Z,-1.05
2022-11-29T09:43:33.030Z,-0.90
2022-11-29T09:53:47.856Z,-0.90
2022-11-29T10:03:55.961Z,-0.57
2022-11-29T10:14:10.333Z,-0.58
2022-11-29T10:24:21.405Z,-0.11
2022-11-29T10:34:27.884Z,0.11
2022-11-29T10:44:34.792Z,0.09
2022-11-29T10:54:43.304Z,0.30
2022-11-29T11:04:51.279Z,0.16
2022-11-29T11:15:19.961Z,0.33
2022-11-29T11:25:35.837Z,0.39
2022-11-29T11:35:41.035Z,0.32
2022-11-29T11:45:54.088Z,0.36
2022-11-29T11:56:09.668Z,0.46
2022-11-29T12:06:19.377Z,0.53
2022-11-29T12:16:35.935Z,0.71
2022-11-29T12:26:58.932Z,0.84
2022-11-29T12:37:17.773Z,0.69
2022-11-29T12:47:36.139Z,0.80
2022-11-29T12:57:56.801Z,0.99
2022-11-29T13:08:23.896Z,1.28
2022-11-29T13:18:50.084Z,1.35
2022-11-29T13:28:56.772Z,1.54
2022-11-29T13:39:08.092Z,1.28
2022-11-29T13:49:44.283Z,1.24
2022-11-29T13:59:51.964Z,1.06
2022-11-29T14:10:00.373Z,0.97
2022-11-29T14:20:45.024Z,0.87
2022-11-29T14:30:56.289Z,0.56
2022-11-29T14:41:19.325Z,0.41
2022-11-29T14:51:27.718Z,0.43
2022-11-29T15:01:35.377Z,0.22
2022-11-29T15:11:50.690Z,0.08
2022-11-29T15:22:18.793Z,-0.06
2022-11-29T15:32:34.331Z,-0.24
2022-11-29T15:42:45.724Z,-0.22
2022-11-29T15:52:51.999Z,-0.20
2022-11-29T16:03:01.877Z,-0.17
2022-11-29T16:13:34.383Z,-0.39
2022-11-29T16:23:45.019Z,-0.50
2022-11-29T16:33:53.124Z,-0.46
2022-11-29T16:44:00.137Z,-0.66
2022-11-29T16:54:27.580Z,-0.50
2022-11-29T17:04:33.818Z,-0.49
2022-11-29T17:14:40.131Z,-0.33
2022-11-29T17:24:48.366Z,-0.62
2022-11-29T17:34:55.024Z,-0.77
2022-11-29T17:45:01.274Z,-0.58
2022-11-29T17:55:08.088Z,-0.57
2022-11-29T18:05:14.354Z,-0.49
2022-11-29T18:15:20.646Z,-0.32
2022-11-29T18:25:42.140Z,-0.38
2022-11-29T18:35:48.392Z,-0.37
2022-11-29T18:45:54.714Z,-0.46
2022-11-29T18:56:06.761Z,-0.48
2022-11-29T19:06:15.692Z,-0.38
2022-11-29T19:16:23.232Z,-0.53
2022-11-29T19:26:30.962Z,-0.37
2022-11-29T19:36:44.434Z,-0.14
2022-11-29T19:46:51.348Z,-0.33
2022-11-29T19:56:59.764Z,-0.17
2022-11-29T20:07:05.213Z,-0.25
2022-11-29T20:17:11.512Z,-0.05
2022-11-29T20:27:17.777Z,-0.26
2022-11-29T20:37:45.614Z,-0.30
2022-11-29T20:47:57.097Z,-0.10
2022-11-29T20:58:03.354Z,0.11
2022-11-29T21:08:09.721Z,0.08
2022-11-29T21:18:24.899Z,0.10
2022-11-29T21:28:57.793Z,0.08
2022-11-29T21:39:06.113Z,0.03
2022-11-29T21:49:12.445Z,0.19
2022-11-29T21:59:18.690Z,-0.05
2022-11-29T22:09:24.983Z,0.00
2022-11-29T22:19:37.309Z,-0.05
2022-11-29T22:29:43.610Z,-0.05
2022-11-29T22:39:50.506Z,0.18
2022-11-29T22:49:56.800Z,-0.08
2022-11-29T23:00:03.314Z,-0.06
2022-11-29T23:10:10.004Z,0.16
2022-11-29T23:20:16.219Z,0.15
2022-11-29T23:30:22.546Z,-0.07
2022-11-29T23:40:28.801Z,-0.10
2022-11-29T23:50:35.428Z,-0.18
